| time (UTC) | temp F | wind direction | speed MPH | gust MPH | rain 1hr in | rain 24hr in | rain mn in | humidity % | barometer mb |
| 20260508033518 | 48 | 305 | 1.0 | 2.0 | 0.00 | 0.04 | 0.04 | 59 | 1008.6 |
| 20260508032522 | 48 | 276 | 1.0 | 5.0 | 0.00 | 0.04 | 0.04 | 58 | 1008.6 |
| 20260508031539 | 49 | 266 | 1.0 | 3.0 | 0.00 | 0.04 | 0.04 | 58 | 1008.6 |
| 20260508030519 | 50 | 292 | 1.0 | 3.0 | 0.00 | 0.04 | 0.04 | 56 | 1008.5 |
| 20260508025519 | 50 | 287 | 2.0 | 6.0 | 0.00 | 0.04 | 0.04 | 56 | 1008.5 |
| 20260508024519 | 50 | 267 | 1.0 | 6.0 | 0.00 | 0.04 | 0.04 | 55 | 1008.5 |
| 20260508023539 | 50 | 301 | 1.0 | 3.0 | 0.00 | 0.04 | 0.04 | 54 | 1008.5 |
| 20260508022518 | 50 | 307 | 1.0 | 3.0 | 0.00 | 0.04 | 0.04 | 55 | 1008.5 |
| 20260508021519 | 51 | 294 | 1.0 | 4.0 | 0.00 | 0.04 | 0.04 | 53 | 1008.5 |
| 20260508020520 | 51 | 297 | 1.0 | 4.0 | 0.00 | 0.04 | 0.04 | 54 | 1008.6 |
| 20260508015520 | 51 | 300 | 2.0 | 4.0 | 0.00 | 0.04 | 0.04 | 55 | 1008.5 |
| 20260508014519 | 51 | 313 | 1.0 | 3.0 | 0.00 | 0.04 | 0.04 | 54 | 1008.5 |
| 20260508013517 | 52 | 287 | 0.0 | 2.0 | 0.00 | 0.04 | 0.04 | 54 | 1008.3 |
| 20260508012520 | 52 | 300 | 1.0 | 3.0 | 0.00 | 0.04 | 0.04 | 54 | 1008.1 |
| 20260508011517 | 52 | 289 | 1.0 | 3.0 | 0.00 | 0.04 | 0.04 | 54 | 1007.9 |
| 20260508010517 | 52 | 292 | 1.0 | 3.0 | 0.00 | 0.04 | 0.04 | 54 | 1007.9 |
| 20260508005517 | 53 | 292 | 1.0 | 4.0 | 0.00 | 0.04 | 0.04 | 51 | 1007.8 |
| 20260508004522 | 53 | 280 | 2.0 | 4.0 | 0.00 | 0.04 | 0.04 | 50 | 1007.4 |
| 20260508003518 | 54 | 298 | 1.0 | 3.0 | 0.00 | 0.04 | 0.04 | 50 | 1007.3 |
| 20260508002517 | 54 | 285 | 2.0 | 4.0 | 0.00 | 0.04 | 0.04 | 48 | 1007.3 |
| 20260508001518 | 55 | 287 | 2.0 | 8.0 | 0.00 | 0.04 | 0.04 | 48 | 1007.1 |
| 20260508000518 | 55 | 270 | 2.0 | 4.0 | 0.00 | 0.04 | 0.04 | 48 | 1007.1 |
| 20260507235518 | 56 | 277 | 2.0 | 5.0 | 0.00 | 0.04 | 0.04 | 45 | 1007.0 |
| 20260507234519 | 56 | 277 | 2.0 | 5.0 | 0.00 | 0.04 | 0.04 | 44 | 1006.9 |
| 20260507233518 | 57 | 302 | 2.0 | 4.0 | 0.00 | 0.04 | 0.04 | 43 | 1006.7 |
| 20260507232519 | 58 | 281 | 2.0 | 6.0 | 0.00 | 0.04 | 0.04 | 44 | 1006.6 |
| 20260507231519 | 58 | 278 | 2.0 | 5.0 | 0.00 | 0.04 | 0.04 | 43 | 1006.6 |
| 20260507230519 | 59 | 286 | 3.0 | 6.0 | 0.00 | 0.07 | 0.04 | 41 | 1006.5 |
| 20260507225519 | 59 | 278 | 3.0 | 6.0 | 0.00 | 0.08 | 0.04 | 42 | 1006.5 |
| 20260507224519 | 60 | 285 | 2.0 | 6.0 | 0.00 | 0.08 | 0.04 | 42 | 1006.4 |
| 20260507223518 | 60 | 269 | 3.0 | 6.0 | 0.00 | 0.08 | 0.04 | 41 | 1006.3 |
| 20260507222520 | 61 | 247 | 3.0 | 7.0 | 0.00 | 0.08 | 0.04 | 40 | 1006.2 |
| 20260507221521 | 62 | 291 | 2.0 | 5.0 | 0.00 | 0.08 | 0.04 | 39 | 1006.0 |
| 20260507220517 | 62 | 278 | 3.0 | 7.0 | 0.00 | 0.08 | 0.04 | 39 | 1005.9 |
| 20260507215516 | 61 | 246 | 3.0 | 8.0 | 0.00 | 0.08 | 0.04 | 39 | 1005.9 |
| 20260507214520 | 62 | 264 | 4.0 | 9.0 | 0.00 | 0.08 | 0.04 | 39 | 1005.8 |
| 20260507213520 | 61 | 295 | 2.0 | 5.0 | 0.00 | 0.08 | 0.04 | 41 | 1005.7 |
| 20260507212517 | 62 | 285 | 3.0 | 5.0 | 0.00 | 0.08 | 0.04 | 41 | 1005.7 |
| 20260507211537 | 63 | 322 | 3.0 | 5.0 | 0.00 | 0.08 | 0.04 | 39 | 1005.6 |
| 20260507210517 | 63 | 283 | 2.0 | 5.0 | 0.00 | 0.08 | 0.04 | 40 | 1005.5 |
| 20260507205518 | 63 | 265 | 2.0 | 5.0 | 0.00 | 0.08 | 0.04 | 39 | 1005.4 |
| 20260507204517 | 63 | 282 | 4.0 | 8.0 | 0.00 | 0.08 | 0.04 | 39 | 1005.5 |
| 20260507203520 | 63 | 281 | 4.0 | 9.0 | 0.00 | 0.09 | 0.04 | 39 | 1005.5 |
| 20260507202518 | 63 | 319 | 2.0 | 4.0 | 0.00 | 0.09 | 0.04 | 40 | 1005.4 |
| 20260507201518 | 63 | 256 | 4.0 | 11.0 | 0.00 | 0.10 | 0.04 | 40 | 1005.4 |
| 20260507200518 | 63 | 307 | 3.0 | 7.0 | 0.00 | 0.10 | 0.04 | 41 | 1005.5 |
| 20260507195518 | 63 | 298 | 3.0 | 6.0 | 0.00 | 0.11 | 0.04 | 42 | 1005.5 |
| 20260507194519 | 63 | 319 | 2.0 | 6.0 | 0.00 | 0.11 | 0.04 | 42 | 1005.7 |
| 20260507193519 | 63 | 253 | 4.0 | 10.0 | 0.00 | 0.12 | 0.04 | 41 | 1005.9 |
| 20260507192519 | 63 | 292 | 3.0 | 7.0 | 0.00 | 0.13 | 0.04 | 40 | 1005.9 |
| 20260507191519 | 62 | 303 | 4.0 | 7.0 | 0.00 | 0.14 | 0.04 | 41 | 1005.9 |
| 20260507190516 | 62 | 306 | 3.0 | 9.0 | 0.00 | 0.14 | 0.04 | 39 | 1006.1 |
| 20260507185519 | 63 | 310 | 3.0 | 7.0 | 0.00 | 0.16 | 0.04 | 39 | 1006.2 |
| 20260507184521 | 63 | 294 | 3.0 | 8.0 | 0.00 | 0.16 | 0.04 | 38 | 1006.2 |
| 20260507183521 | 62 | 257 | 4.0 | 9.0 | 0.00 | 0.17 | 0.04 | 39 | 1006.4 |
| 20260507182518 | 62 | 243 | 4.0 | 8.0 | 0.00 | 0.17 | 0.04 | 38 | 1006.3 |
| 20260507181521 | 62 | 260 | 4.0 | 8.0 | 0.00 | 0.18 | 0.04 | 38 | 1006.5 |
| 20260507180520 | 62 | 256 | 4.0 | 9.0 | 0.00 | 0.18 | 0.04 | 38 | 1006.6 |
| 20260507175517 | 63 | 269 | 3.0 | 8.0 | 0.00 | 0.18 | 0.04 | 40 | 1006.6 |
| 20260507174517 | 62 | 269 | 3.0 | 9.0 | 0.00 | 0.18 | 0.04 | 44 | 1006.5 |
| 20260507173519 | 62 | 279 | 4.0 | 8.0 | 0.00 | 0.18 | 0.04 | 45 | 1006.5 |
| 20260507172540 | 62 | 304 | 3.0 | 9.0 | 0.00 | 0.18 | 0.04 | 46 | 1006.5 |
| 20260507171517 | 62 | 256 | 3.0 | 8.0 | 0.00 | 0.18 | 0.04 | 45 | 1006.7 |
| 20260507170519 | 61 | 269 | 3.0 | 7.0 | 0.00 | 0.18 | 0.04 | 46 | 1006.9 |
| 20260507165538 | 61 | 293 | 3.0 | 8.0 | 0.00 | 0.18 | 0.04 | 48 | 1007.0 |
| 20260507164519 | 61 | 275 | 4.0 | 9.0 | 0.00 | 0.18 | 0.04 | 48 | 1007.1 |
| 20260507163521 | 61 | 281 | 3.0 | 9.0 | 0.00 | 0.18 | 0.04 | 50 | 1007.1 |
| 20260507162518 | 61 | 304 | 3.0 | 6.0 | 0.00 | 0.18 | 0.04 | 52 | 1007.2 |
| 20260507161539 | 61 | 271 | 3.0 | 7.0 | 0.00 | 0.18 | 0.04 | 53 | 1007.4 |
| 20260507160518 | 61 | 294 | 3.0 | 6.0 | 0.00 | 0.18 | 0.04 | 57 | 1007.4 |
| 20260507155518 | 60 | 284 | 3.0 | 8.0 | 0.00 | 0.18 | 0.04 | 58 | 1007.5 |
| 20260507154539 | 60 | 282 | 4.0 | 8.0 | 0.00 | 0.18 | 0.04 | 59 | 1007.5 |
| 20260507153521 | 59 | 266 | 3.0 | 8.0 | 0.00 | 0.18 | 0.04 | 59 | 1007.4 |
| 20260507152540 | 59 | 302 | 3.0 | 6.0 | 0.00 | 0.18 | 0.04 | 64 | 1007.6 |
| 20260507151538 | 58 | 257 | 3.0 | 9.0 | 0.00 | 0.18 | 0.04 | 63 | 1007.6 |
| 20260507150519 | 58 | 288 | 2.0 | 8.0 | 0.00 | 0.18 | 0.04 | 65 | 1007.8 |
| 20260507145519 | 57 | 301 | 3.0 | 7.0 | 0.00 | 0.18 | 0.04 | 67 | 1007.9 |
| 20260507144519 | 57 | 278 | 3.0 | 8.0 | 0.00 | 0.18 | 0.04 | 66 | 1008.1 |
| 20260507143517 | 57 | 259 | 2.0 | 7.0 | 0.00 | 0.18 | 0.04 | 66 | 1008.1 |
| 20260507142517 | 57 | 317 | 1.0 | 3.0 | 0.00 | 0.18 | 0.04 | 67 | 1008.1 |
| 20260507141521 | 57 | 344 | 2.0 | 4.0 | 0.00 | 0.18 | 0.04 | 67 | 1008.2 |
| 20260507140519 | 56 | 267 | 1.0 | 4.0 | 0.00 | 0.18 | 0.04 | 66 | 1008.2 |
| 20260507135517 | 56 | 248 | 2.0 | 5.0 | 0.00 | 0.18 | 0.04 | 69 | 1008.2 |
| 20260507134517 | 57 | 259 | 2.0 | 4.0 | 0.00 | 0.18 | 0.04 | 70 | 1008.1 |
| 20260507133520 | 56 | 348 | 1.0 | 3.0 | 0.00 | 0.18 | 0.04 | 68 | 1008.1 |
| 20260507132520 | 55 | 334 | 2.0 | 4.0 | 0.00 | 0.18 | 0.04 | 72 | 1008.2 |
| 20260507131517 | 54 | 266 | 2.0 | 5.0 | 0.00 | 0.18 | 0.04 | 76 | 1008.3 |
| 20260507130518 | 53 | 325 | 2.0 | 4.0 | 0.00 | 0.18 | 0.04 | 78 | 1008.2 |
| 20260507125518 | 53 | 319 | 2.0 | 4.0 | 0.00 | 0.18 | 0.04 | 81 | 1008.2 |
| 20260507124520 | 52 | 300 | 2.0 | 4.0 | 0.00 | 0.18 | 0.04 | 82 | 1008.2 |
| 20260507123521 | 51 | 304 | 2.0 | 4.0 | 0.00 | 0.18 | 0.04 | 86 | 1008.1 |
| 20260507122521 | 50 | 338 | 2.0 | 3.0 | 0.00 | 0.18 | 0.04 | 91 | 1008.1 |
| 20260507121521 | 50 | 345 | 1.0 | 2.0 | 0.00 | 0.18 | 0.04 | 92 | 1008.1 |
| 20260507120521 | 49 | 300 | 0.0 | 1.0 | 0.00 | 0.18 | 0.04 | 95 | 1008.1 |
| 20260507115521 | 49 | 312 | 1.0 | 3.0 | 0.00 | 0.18 | 0.04 | 96 | 1008.2 |
| 20260507114542 | 49 | 318 | 1.0 | 2.0 | 0.00 | 0.18 | 0.04 | 97 | 1008.2 |
| 20260507113522 | 49 | 349 | 1.0 | 2.0 | 0.00 | 0.18 | 0.04 | 98 | 1008.1 |
| 20260507112522 | 48 | 310 | 1.0 | 2.0 | 0.00 | 0.18 | 0.04 | 99 | 1008.3 |
| 20260507111542 | 48 | 295 | 1.0 | 2.0 | 0.00 | 0.18 | 0.04 | 99 | 1008.3 |
| 20260507110522 | 48 | 71 | 0.0 | 1.0 | 0.00 | 0.18 | 0.04 | 99 | 1007.9 |
| 20260507105522 | 48 | 52 | 1.0 | 2.0 | 0.00 | 0.18 | 0.04 | 99 | 1008.2 |
| 20260507104523 | 48 | 66 | 1.0 | 1.0 | 0.00 | 0.18 | 0.04 | 99 | 1008.2 |
| 20260507103522 | 48 | 327 | 0.0 | 1.0 | 0.00 | 0.18 | 0.04 | 99 | 1008.0 |
| 20260507102525 | 48 | 103 | 1.0 | 2.0 | 0.01 | 0.18 | 0.04 | 99 | 1007.6 |
| 20260507101543 | 48 | 331 | 0.0 | 2.0 | 0.01 | 0.18 | 0.04 | 99 | 1007.5 |
| 20260507100523 | 48 | 69 | 0.0 | 2.0 | 0.01 | 0.18 | 0.04 | 99 | 1007.4 |
| 20260507095526 | 48 | 284 | 1.0 | 2.0 | 0.01 | 0.18 | 0.03 | 98 | 1007.4 |
| 20260507094523 | 48 | 77 | 1.0 | 2.0 | 0.01 | 0.18 | 0.03 | 98 | 1007.3 |
| 20260507093523 | 48 | 22 | 1.0 | 2.0 | 0.01 | 0.18 | 0.03 | 98 | 1007.4 |
| 20260507092543 | 49 | 311 | 1.0 | 2.0 | 0.01 | 0.18 | 0.03 | 98 | 1007.7 |
| 20260507091547 | 49 | 352 | 1.0 | 2.0 | 0.00 | 0.17 | 0.03 | 98 | 1007.6 |
| 20260507090527 | 49 | 312 | 1.0 | 2.0 | 0.00 | 0.17 | 0.03 | 98 | 1007.8 |
| 20260507085523 | 49 | 290 | 1.0 | 3.0 | 0.00 | 0.17 | 0.02 | 98 | 1007.9 |
| 20260507084524 | 49 | 303 | 1.0 | 2.0 | 0.00 | 0.17 | 0.02 | 98 | 1007.8 |
| 20260507083524 | 50 | 304 | 0.0 | 2.0 | 0.02 | 0.17 | 0.02 | 97 | 1007.6 |
| 20260507082523 | 50 | 278 | 2.0 | 3.0 | 0.02 | 0.17 | 0.02 | 97 | 1007.6 |
| 20260507081546 | 50 | 281 | 1.0 | 4.0 | 0.02 | 0.17 | 0.02 | 97 | 1007.2 |
| 20260507080528 | 50 | 272 | 1.0 | 2.0 | 0.02 | 0.17 | 0.02 | 97 | 1007.3 |
| 20260507075525 | 51 | 302 | 2.0 | 3.0 | 0.02 | 0.17 | 0.02 | 96 | 1007.6 |
| 20260507074526 | 52 | 290 | 2.0 | 4.0 | 0.02 | 0.17 | 0.02 | 95 | 1007.3 |
| 20260507073546 | 52 | 302 | 1.0 | 2.0 | 0.01 | 0.15 | 0.01 | 93 | 1007.3 |
| 20260507072525 | 53 | 289 | 2.0 | 4.0 | 0.00 | 0.15 | 0.00 | 96 | 1006.9 |
| 20260507071525 | 53 | 303 | 1.0 | 2.0 | 0.00 | 0.14 | 0.00 | 96 | 1006.7 |
| 20260507070606 | 53 | 269 | 2.0 | 4.0 | 0.00 | 0.14 | 0.00 | 96 | 1006.6 |
| 20260507065527 | 54 | 256 | 1.0 | 2.0 | 0.00 | 0.14 | 0.00 | 97 | 1006.6 |
| 20260507064527 | 54 | 274 | 1.0 | 2.0 | 0.00 | 0.14 | 0.00 | 97 | 1006.5 |
| 20260507063527 | 54 | 280 | 1.0 | 2.0 | 0.00 | 0.14 | 0.00 | 98 | 1006.6 |
| 20260507062526 | 54 | 259 | 1.0 | 2.0 | 0.00 | 0.14 | 0.00 | 98 | 1006.7 |
| 20260507061526 | 54 | 274 | 2.0 | 3.0 | 0.00 | 0.14 | 0.00 | 97 | 1006.6 |
| 20260507060526 | 54 | 272 | 1.0 | 2.0 | 0.00 | 0.14 | 0.00 | 97 | 1006.6 |
| 20260507055526 | 55 | 218 | 1.0 | 3.0 | 0.00 | 0.14 | 0.00 | 98 | 1006.6 |
| 20260507054526 | 55 | 270 | 1.0 | 2.0 | 0.00 | 0.14 | 0.00 | 98 | 1006.8 |
| 20260507053528 | 55 | 288 | 1.0 | 2.0 | 0.00 | 0.14 | 0.00 | 98 | 1006.9 |
| 20260507052547 | 56 | 253 | 0.0 | 3.0 | 0.00 | 0.14 | 0.00 | 98 | 1006.9 |
| 20260507051527 | 56 | 304 | 1.0 | 2.0 | 0.00 | 0.14 | 0.00 | 98 | 1006.8 |
| 20260507050527 | 56 | 275 | 2.0 | 3.0 | 0.00 | 0.14 | 0.00 | 98 | 1006.6 |
| 20260507045527 | 57 | 285 | 1.0 | 2.0 | 0.00 | 0.14 | 0.00 | 98 | 1006.9 |
| 20260507044529 | 57 | 270 | 2.0 | 3.0 | 0.00 | 0.14 | 0.00 | 99 | 1007.0 |
| 20260507043529 | 58 | 298 | 2.0 | 3.0 | 0.00 | 0.14 | 0.00 | 99 | 1006.8 |
| 20260507042527 | 58 | 265 | 2.0 | 3.0 | 0.00 | 0.14 | 0.00 | 99 | 1006.8 |
| 20260507041528 | 58 | 270 | 2.0 | 3.0 | 0.00 | 0.14 | 0.00 | 99 | 1006.8 |
| 20260507040527 | 58 | 278 | 3.0 | 5.0 | 0.00 | 0.14 | 0.00 | 100 | 1006.8 |
| 20260507035528 | 59 | 251 | 1.0 | 3.0 | 0.00 | 0.14 | 0.14 | 99 | 1007.0 |
| 20260507034528 | 59 | 261 | 2.0 | 4.0 | 0.00 | 0.14 | 0.14 | 99 | 1006.7 |